sensor_id;sensor_type;location;lat;lon;timestamp;P1;durP1;ratioP1;P2;durP2;ratioP2
12703;SDS011;6416;52.182;7.650;2023-12-28T00:01:24;2.63;;;2.10;;
12703;SDS011;6416;52.182;7.650;2023-12-28T00:03:50;2.57;;;1.90;;
12703;SDS011;6416;52.182;7.650;2023-12-28T00:06:15;3.27;;;1.97;;
12703;SDS011;6416;52.182;7.650;2023-12-28T00:08:41;2.27;;;1.80;;
12703;SDS011;6416;52.182;7.650;2023-12-28T00:11:07;3.97;;;1.90;;
12703;SDS011;6416;52.182;7.650;2023-12-28T00:13:32;4.67;;;2.20;;
12703;SDS011;6416;52.182;7.650;2023-12-28T00:15:58;2.90;;;2.30;;
12703;SDS011;6416;52.182;7.650;2023-12-28T00:18:23;3.13;;;2.27;;
12703;SDS011;6416;52.182;7.650;2023-12-28T00:20:49;3.77;;;2.40;;
12703;SDS011;6416;52.182;7.650;2023-12-28T00:23:14;3.70;;;2.50;;
12703;SDS011;6416;52.182;7.650;2023-12-28T00:25:40;4.37;;;2.30;;
12703;SDS011;6416;52.182;7.650;2023-12-28T00:28:06;2.00;;;1.70;;
12703;SDS011;6416;52.182;7.650;2023-12-28T00:30:31;2.47;;;2.07;;
12703;SDS011;6416;52.182;7.650;2023-12-28T00:32:57;2.20;;;2.00;;
12703;SDS011;6416;52.182;7.650;2023-12-28T00:35:22;3.90;;;2.77;;
12703;SDS011;6416;52.182;7.650;2023-12-28T00:37:48;2.73;;;2.20;;
12703;SDS011;6416;52.182;7.650;2023-12-28T00:40:13;3.83;;;2.37;;
12703;SDS011;6416;52.182;7.650;2023-12-28T00:42:39;2.53;;;2.10;;
12703;SDS011;6416;52.182;7.650;2023-12-28T00:45:05;3.87;;;2.30;;
12703;SDS011;6416;52.182;7.650;2023-12-28T00:47:31;3.27;;;2.10;;
12703;SDS011;6416;52.182;7.650;2023-12-28T00:49:56;2.73;;;2.40;;
12703;SDS011;6416;52.182;7.650;2023-12-28T00:52:21;3.87;;;2.67;;
12703;SDS011;6416;52.182;7.650;2023-12-28T00:54:47;2.27;;;2.07;;
12703;SDS011;6416;52.182;7.650;2023-12-28T00:57:12;2.87;;;2.33;;
12703;SDS011;6416;52.182;7.650;2023-12-28T00:59:38;2.53;;;2.33;;
12703;SDS011;6416;52.182;7.650;2023-12-28T01:02:03;2.33;;;2.13;;
12703;SDS011;6416;52.182;7.650;2023-12-28T01:04:29;2.80;;;2.30;;
12703;SDS011;6416;52.182;7.650;2023-12-28T01:06:54;2.40;;;2.20;;
12703;SDS011;6416;52.182;7.650;2023-12-28T01:09:20;2.67;;;2.43;;
12703;SDS011;6416;52.182;7.650;2023-12-28T01:11:45;2.50;;;2.30;;
12703;SDS011;6416;52.182;7.650;2023-12-28T01:14:11;3.07;;;2.57;;
12703;SDS011;6416;52.182;7.650;2023-12-28T01:16:36;5.30;;;2.57;;
12703;SDS011;6416;52.182;7.650;2023-12-28T01:19:02;2.53;;;2.33;;
12703;SDS011;6416;52.182;7.650;2023-12-28T01:21:27;3.83;;;2.50;;
12703;SDS011;6416;52.182;7.650;2023-12-28T01:23:53;3.07;;;2.30;;
12703;SDS011;6416;52.182;7.650;2023-12-28T01:26:18;3.27;;;2.50;;
12703;SDS011;6416;52.182;7.650;2023-12-28T01:28:43;5.50;;;2.50;;
12703;SDS011;6416;52.182;7.650;2023-12-28T01:31:09;2.80;;;2.33;;
12703;SDS011;6416;52.182;7.650;2023-12-28T01:33:34;3.83;;;2.60;;
12703;SDS011;6416;52.182;7.650;2023-12-28T01:36:00;3.53;;;2.50;;
12703;SDS011;6416;52.182;7.650;2023-12-28T01:38:25;2.63;;;2.30;;
12703;SDS011;6416;52.182;7.650;2023-12-28T01:40:51;2.70;;;2.37;;
12703;SDS011;6416;52.182;7.650;2023-12-28T01:43:16;3.23;;;2.47;;
12703;SDS011;6416;52.182;7.650;2023-12-28T01:45:42;3.10;;;2.53;;
12703;SDS011;6416;52.182;7.650;2023-12-28T01:48:07;2.80;;;2.20;;
12703;SDS011;6416;52.182;7.650;2023-12-28T01:50:33;4.07;;;2.40;;
12703;SDS011;6416;52.182;7.650;2023-12-28T01:53:00;2.30;;;2.10;;
12703;SDS011;6416;52.182;7.650;2023-12-28T01:55:27;2.07;;;1.90;;
12703;SDS011;6416;52.182;7.650;2023-12-28T01:57:55;3.93;;;2.60;;
12703;SDS011;6416;52.182;7.650;2023-12-28T02:00:21;2.40;;;2.20;;
12703;SDS011;6416;52.182;7.650;2023-12-28T02:02:47;3.00;;;2.13;;
12703;SDS011;6416;52.182;7.650;2023-12-28T02:05:13;2.57;;;2.33;;
12703;SDS011;6416;52.182;7.650;2023-12-28T02:07:39;2.27;;;1.93;;
12703;SDS011;6416;52.182;7.650;2023-12-28T02:10:05;2.77;;;2.33;;
12703;SDS011;6416;52.182;7.650;2023-12-28T02:12:32;3.20;;;2.10;;
12703;SDS011;6416;52.182;7.650;2023-12-28T02:14:57;2.67;;;2.47;;
12703;SDS011;6416;52.182;7.650;2023-12-28T02:17:27;3.40;;;2.70;;
12703;SDS011;6416;52.182;7.650;2023-12-28T02:19:58;3.03;;;2.73;;
12703;SDS011;6416;52.182;7.650;2023-12-28T02:22:25;3.00;;;2.53;;
12703;SDS011;6416;52.182;7.650;2023-12-28T02:25:04;5.17;;;2.90;;
12703;SDS011;6416;52.182;7.650;2023-12-28T02:27:30;2.60;;;2.40;;
12703;SDS011;6416;52.182;7.650;2023-12-28T02:29:56;2.87;;;2.40;;
12703;SDS011;6416;52.182;7.650;2023-12-28T02:32:22;3.37;;;2.73;;
12703;SDS011;6416;52.182;7.650;2023-12-28T02:34:58;4.33;;;2.70;;
12703;SDS011;6416;52.182;7.650;2023-12-28T02:37:29;2.80;;;2.50;;
12703;SDS011;6416;52.182;7.650;2023-12-28T02:39:56;3.73;;;2.40;;
12703;SDS011;6416;52.182;7.650;2023-12-28T02:42:22;2.30;;;2.10;;
12703;SDS011;6416;52.182;7.650;2023-12-28T02:44:48;3.20;;;2.53;;
12703;SDS011;6416;52.182;7.650;2023-12-28T02:47:15;2.50;;;2.30;;
12703;SDS011;6416;52.182;7.650;2023-12-28T02:49:40;2.93;;;2.23;;
12703;SDS011;6416;52.182;7.650;2023-12-28T02:52:06;2.57;;;2.30;;
12703;SDS011;6416;52.182;7.650;2023-12-28T02:54:31;4.90;;;2.63;;
12703;SDS011;6416;52.182;7.650;2023-12-28T02:56:57;3.00;;;2.43;;
12703;SDS011;6416;52.182;7.650;2023-12-28T02:59:22;2.43;;;2.20;;
12703;SDS011;6416;52.182;7.650;2023-12-28T03:01:48;3.20;;;2.30;;
12703;SDS011;6416;52.182;7.650;2023-12-28T03:04:13;3.60;;;2.73;;
12703;SDS011;6416;52.182;7.650;2023-12-28T03:06:38;2.70;;;2.50;;
12703;SDS011;6416;52.182;7.650;2023-12-28T03:09:04;3.10;;;2.53;;
12703;SDS011;6416;52.182;7.650;2023-12-28T03:11:29;4.17;;;2.20;;
12703;SDS011;6416;52.182;7.650;2023-12-28T03:13:55;3.87;;;2.90;;
12703;SDS011;6416;52.182;7.650;2023-12-28T03:16:20;5.57;;;2.60;;
12703;SDS011;6416;52.182;7.650;2023-12-28T03:18:46;3.23;;;2.70;;
12703;SDS011;6416;52.182;7.650;2023-12-28T03:21:11;3.77;;;2.90;;
12703;SDS011;6416;52.182;7.650;2023-12-28T03:23:37;3.20;;;2.57;;
12703;SDS011;6416;52.182;7.650;2023-12-28T03:26:02;3.43;;;2.60;;
12703;SDS011;6416;52.182;7.650;2023-12-28T03:28:28;3.43;;;2.70;;
12703;SDS011;6416;52.182;7.650;2023-12-28T03:30:53;4.20;;;2.70;;
12703;SDS011;6416;52.182;7.650;2023-12-28T03:33:19;4.60;;;2.70;;
12703;SDS011;6416;52.182;7.650;2023-12-28T03:35:47;3.03;;;2.53;;
12703;SDS011;6416;52.182;7.650;2023-12-28T03:38:12;2.80;;;2.50;;
12703;SDS011;6416;52.182;7.650;2023-12-28T03:40:38;3.77;;;2.90;;
12703;SDS011;6416;52.182;7.650;2023-12-28T03:43:03;2.60;;;2.17;;
12703;SDS011;6416;52.182;7.650;2023-12-28T03:45:29;4.87;;;2.80;;
12703;SDS011;6416;52.182;7.650;2023-12-28T03:47:54;3.87;;;2.63;;
12703;SDS011;6416;52.182;7.650;2023-12-28T03:50:20;2.97;;;2.57;;
12703;SDS011;6416;52.182;7.650;2023-12-28T03:52:45;3.80;;;2.90;;
12703;SDS011;6416;52.182;7.650;2023-12-28T03:55:10;2.57;;;2.37;;
12703;SDS011;6416;52.182;7.650;2023-12-28T03:57:36;2.90;;;2.60;;
12703;SDS011;6416;52.182;7.650;2023-12-28T04:00:01;3.83;;;2.50;;
12703;SDS011;6416;52.182;7.650;2023-12-28T04:02:27;4.77;;;2.70;;
12703;SDS011;6416;52.182;7.650;2023-12-28T04:04:52;3.93;;;2.87;;
12703;SDS011;6416;52.182;7.650;2023-12-28T04:07:18;5.07;;;3.00;;
12703;SDS011;6416;52.182;7.650;2023-12-28T04:09:43;3.53;;;2.93;;
12703;SDS011;6416;52.182;7.650;2023-12-28T04:12:09;3.30;;;2.53;;
12703;SDS011;6416;52.182;7.650;2023-12-28T04:14:35;4.73;;;2.70;;
12703;SDS011;6416;52.182;7.650;2023-12-28T04:17:00;3.23;;;2.57;;
12703;SDS011;6416;52.182;7.650;2023-12-28T04:19:26;5.27;;;2.70;;
12703;SDS011;6416;52.182;7.650;2023-12-28T04:21:51;3.37;;;2.70;;
12703;SDS011;6416;52.182;7.650;2023-12-28T04:24:17;4.50;;;2.70;;
12703;SDS011;6416;52.182;7.650;2023-12-28T04:26:42;4.03;;;2.87;;
12703;SDS011;6416;52.182;7.650;2023-12-28T04:29:07;4.80;;;2.70;;
12703;SDS011;6416;52.182;7.650;2023-12-28T04:31:33;4.33;;;2.83;;
12703;SDS011;6416;52.182;7.650;2023-12-28T04:33:58;3.13;;;2.60;;
12703;SDS011;6416;52.182;7.650;2023-12-28T04:36:24;3.07;;;2.53;;
12703;SDS011;6416;52.182;7.650;2023-12-28T04:38:49;2.80;;;2.57;;
12703;SDS011;6416;52.182;7.650;2023-12-28T04:41:15;5.13;;;2.50;;
12703;SDS011;6416;52.182;7.650;2023-12-28T04:43:40;3.77;;;2.27;;
12703;SDS011;6416;52.182;7.650;2023-12-28T04:46:06;4.83;;;2.40;;
12703;SDS011;6416;52.182;7.650;2023-12-28T04:48:31;4.57;;;2.47;;
12703;SDS011;6416;52.182;7.650;2023-12-28T04:50:57;3.97;;;2.10;;
12703;SDS011;6416;52.182;7.650;2023-12-28T04:53:23;3.47;;;2.40;;
12703;SDS011;6416;52.182;7.650;2023-12-28T04:55:48;3.60;;;2.37;;
12703;SDS011;6416;52.182;7.650;2023-12-28T04:58:14;3.07;;;2.20;;
12703;SDS011;6416;52.182;7.650;2023-12-28T05:00:39;3.77;;;2.50;;
12703;SDS011;6416;52.182;7.650;2023-12-28T05:03:05;2.50;;;2.20;;
12703;SDS011;6416;52.182;7.650;2023-12-28T05:05:34;4.23;;;2.53;;
12703;SDS011;6416;52.182;7.650;2023-12-28T05:08:02;5.70;;;2.40;;
12703;SDS011;6416;52.182;7.650;2023-12-28T05:10:27;3.80;;;2.30;;
12703;SDS011;6416;52.182;7.650;2023-12-28T05:12:53;5.77;;;2.93;;
12703;SDS011;6416;52.182;7.650;2023-12-28T05:15:19;6.27;;;2.70;;
12703;SDS011;6416;52.182;7.650;2023-12-28T05:17:44;2.20;;;1.97;;
12703;SDS011;6416;52.182;7.650;2023-12-28T05:20:10;3.40;;;2.17;;
12703;SDS011;6416;52.182;7.650;2023-12-28T05:22:35;5.03;;;2.40;;
12703;SDS011;6416;52.182;7.650;2023-12-28T05:25:01;3.40;;;2.13;;
12703;SDS011;6416;52.182;7.650;2023-12-28T05:27:26;6.73;;;2.50;;
12703;SDS011;6416;52.182;7.650;2023-12-28T05:29:54;3.90;;;2.30;;
12703;SDS011;6416;52.182;7.650;2023-12-28T05:32:20;3.33;;;2.20;;
12703;SDS011;6416;52.182;7.650;2023-12-28T05:34:45;4.67;;;2.13;;
12703;SDS011;6416;52.182;7.650;2023-12-28T05:37:11;5.30;;;2.10;;
12703;SDS011;6416;52.182;7.650;2023-12-28T05:39:36;5.47;;;2.30;;
12703;SDS011;6416;52.182;7.650;2023-12-28T05:42:02;4.23;;;2.33;;
12703;SDS011;6416;52.182;7.650;2023-12-28T05:44:30;4.43;;;2.13;;
12703;SDS011;6416;52.182;7.650;2023-12-28T05:46:56;6.47;;;2.60;;
12703;SDS011;6416;52.182;7.650;2023-12-28T05:49:21;3.83;;;2.10;;
12703;SDS011;6416;52.182;7.650;2023-12-28T05:51:47;5.07;;;2.50;;
12703;SDS011;6416;52.182;7.650;2023-12-28T05:54:12;4.03;;;2.07;;
12703;SDS011;6416;52.182;7.650;2023-12-28T05:56:38;8.73;;;2.50;;
12703;SDS011;6416;52.182;7.650;2023-12-28T05:59:03;5.87;;;2.10;;
12703;SDS011;6416;52.182;7.650;2023-12-28T06:01:29;7.87;;;2.33;;
12703;SDS011;6416;52.182;7.650;2023-12-28T06:03:54;2.93;;;2.03;;
12703;SDS011;6416;52.182;7.650;2023-12-28T06:06:20;4.33;;;2.07;;
12703;SDS011;6416;52.182;7.650;2023-12-28T06:08:45;5.87;;;2.30;;
12703;SDS011;6416;52.182;7.650;2023-12-28T06:11:11;2.57;;;2.00;;
12703;SDS011;6416;52.182;7.650;2023-12-28T06:13:37;3.50;;;1.93;;
12703;SDS011;6416;52.182;7.650;2023-12-28T06:16:02;3.23;;;2.37;;
12703;SDS011;6416;52.182;7.650;2023-12-28T06:18:31;4.03;;;2.30;;
12703;SDS011;6416;52.182;7.650;2023-12-28T06:20:56;4.07;;;2.27;;
12703;SDS011;6416;52.182;7.650;2023-12-28T06:23:22;4.23;;;2.20;;
12703;SDS011;6416;52.182;7.650;2023-12-28T06:25:47;8.47;;;2.40;;
12703;SDS011;6416;52.182;7.650;2023-12-28T06:28:13;6.77;;;2.00;;
12703;SDS011;6416;52.182;7.650;2023-12-28T06:30:38;3.47;;;1.77;;
12703;SDS011;6416;52.182;7.650;2023-12-28T06:33:03;3.83;;;2.13;;
12703;SDS011;6416;52.182;7.650;2023-12-28T06:35:29;3.57;;;1.90;;
12703;SDS011;6416;52.182;7.650;2023-12-28T06:37:54;4.93;;;2.03;;
12703;SDS011;6416;52.182;7.650;2023-12-28T06:40:20;4.87;;;2.27;;
12703;SDS011;6416;52.182;7.650;2023-12-28T06:42:45;5.67;;;2.50;;
12703;SDS011;6416;52.182;7.650;2023-12-28T06:45:11;2.57;;;2.03;;
12703;SDS011;6416;52.182;7.650;2023-12-28T06:47:36;6.13;;;2.27;;
12703;SDS011;6416;52.182;7.650;2023-12-28T06:50:02;2.80;;;1.83;;
12703;SDS011;6416;52.182;7.650;2023-12-28T06:52:28;3.63;;;2.00;;
12703;SDS011;6416;52.182;7.650;2023-12-28T06:54:53;4.87;;;2.40;;
12703;SDS011;6416;52.182;7.650;2023-12-28T06:57:19;5.47;;;1.97;;
12703;SDS011;6416;52.182;7.650;2023-12-28T06:59:44;2.30;;;1.97;;
12703;SDS011;6416;52.182;7.650;2023-12-28T07:02:10;4.77;;;1.97;;
12703;SDS011;6416;52.182;7.650;2023-12-28T07:04:35;5.63;;;2.10;;
12703;SDS011;6416;52.182;7.650;2023-12-28T07:07:01;3.80;;;1.83;;
12703;SDS011;6416;52.182;7.650;2023-12-28T07:09:26;5.57;;;2.10;;
12703;SDS011;6416;52.182;7.650;2023-12-28T07:11:52;4.20;;;1.90;;
12703;SDS011;6416;52.182;7.650;2023-12-28T07:14:17;4.23;;;2.00;;
12703;SDS011;6416;52.182;7.650;2023-12-28T07:16:43;4.47;;;2.13;;
12703;SDS011;6416;52.182;7.650;2023-12-28T07:19:08;4.57;;;2.10;;
12703;SDS011;6416;52.182;7.650;2023-12-28T07:21:34;5.23;;;2.30;;
12703;SDS011;6416;52.182;7.650;2023-12-28T07:23:59;4.50;;;2.10;;
12703;SDS011;6416;52.182;7.650;2023-12-28T07:26:25;5.70;;;2.37;;
12703;SDS011;6416;52.182;7.650;2023-12-28T07:28:50;4.20;;;2.20;;
12703;SDS011;6416;52.182;7.650;2023-12-28T07:31:25;3.73;;;1.90;;
12703;SDS011;6416;52.182;7.650;2023-12-28T07:33:51;6.37;;;2.30;;
12703;SDS011;6416;52.182;7.650;2023-12-28T07:36:17;3.60;;;2.10;;
12703;SDS011;6416;52.182;7.650;2023-12-28T07:38:42;4.63;;;1.93;;
12703;SDS011;6416;52.182;7.650;2023-12-28T07:41:08;5.37;;;2.30;;
12703;SDS011;6416;52.182;7.650;2023-12-28T07:43:33;5.97;;;2.20;;
12703;SDS011;6416;52.182;7.650;2023-12-28T07:45:59;5.90;;;2.00;;
12703;SDS011;6416;52.182;7.650;2023-12-28T07:48:24;3.40;;;2.20;;
12703;SDS011;6416;52.182;7.650;2023-12-28T07:50:50;7.43;;;2.37;;
12703;SDS011;6416;52.182;7.650;2023-12-28T07:53:15;6.43;;;2.20;;
12703;SDS011;6416;52.182;7.650;2023-12-28T07:55:41;5.13;;;2.07;;
12703;SDS011;6416;52.182;7.650;2023-12-28T07:58:06;4.77;;;1.87;;
12703;SDS011;6416;52.182;7.650;2023-12-28T08:00:35;6.13;;;2.27;;
12703;SDS011;6416;52.182;7.650;2023-12-28T08:03:00;6.30;;;2.63;;
12703;SDS011;6416;52.182;7.650;2023-12-28T08:05:26;4.60;;;2.03;;
12703;SDS011;6416;52.182;7.650;2023-12-28T08:07:51;5.13;;;2.13;;
12703;SDS011;6416;52.182;7.650;2023-12-28T08:10:17;4.10;;;2.23;;
12703;SDS011;6416;52.182;7.650;2023-12-28T08:12:42;5.90;;;2.00;;
12703;SDS011;6416;52.182;7.650;2023-12-28T08:15:08;3.53;;;2.00;;
12703;SDS011;6416;52.182;7.650;2023-12-28T08:17:34;5.50;;;2.23;;
12703;SDS011;6416;52.182;7.650;2023-12-28T08:19:59;7.43;;;2.40;;
12703;SDS011;6416;52.182;7.650;2023-12-28T08:22:25;8.57;;;2.60;;
12703;SDS011;6416;52.182;7.650;2023-12-28T08:24:50;4.57;;;2.00;;
12703;SDS011;6416;52.182;7.650;2023-12-28T08:27:16;5.17;;;2.13;;
12703;SDS011;6416;52.182;7.650;2023-12-28T08:29:41;6.30;;;2.13;;
12703;SDS011;6416;52.182;7.650;2023-12-28T08:32:07;4.30;;;2.43;;
12703;SDS011;6416;52.182;7.650;2023-12-28T08:34:32;5.63;;;1.90;;
12703;SDS011;6416;52.182;7.650;2023-12-28T08:36:58;6.07;;;2.20;;
12703;SDS011;6416;52.182;7.650;2023-12-28T08:39:23;7.17;;;2.50;;
12703;SDS011;6416;52.182;7.650;2023-12-28T08:41:49;7.33;;;2.40;;
12703;SDS011;6416;52.182;7.650;2023-12-28T08:44:14;5.87;;;2.40;;
12703;SDS011;6416;52.182;7.650;2023-12-28T08:46:43;5.53;;;2.20;;
12703;SDS011;6416;52.182;7.650;2023-12-28T08:49:08;6.33;;;2.27;;
12703;SDS011;6416;52.182;7.650;2023-12-28T08:51:33;9.33;;;2.83;;
12703;SDS011;6416;52.182;7.650;2023-12-28T08:54:02;7.60;;;2.30;;
12703;SDS011;6416;52.182;7.650;2023-12-28T08:56:28;11.07;;;2.93;;
12703;SDS011;6416;52.182;7.650;2023-12-28T08:58:53;4.70;;;2.07;;
12703;SDS011;6416;52.182;7.650;2023-12-28T09:01:19;6.17;;;2.40;;
12703;SDS011;6416;52.182;7.650;2023-12-28T09:03:46;5.87;;;2.03;;
12703;SDS011;6416;52.182;7.650;2023-12-28T09:06:13;8.10;;;2.20;;
12703;SDS011;6416;52.182;7.650;2023-12-28T09:08:41;8.70;;;2.53;;
12703;SDS011;6416;52.182;7.650;2023-12-28T09:11:07;6.03;;;2.23;;
12703;SDS011;6416;52.182;7.650;2023-12-28T09:13:35;6.40;;;2.17;;
12703;SDS011;6416;52.182;7.650;2023-12-28T09:16:00;8.73;;;2.60;;
12703;SDS011;6416;52.182;7.650;2023-12-28T09:18:26;6.53;;;2.27;;
12703;SDS011;6416;52.182;7.650;2023-12-28T09:20:51;10.03;;;2.83;;
12703;SDS011;6416;52.182;7.650;2023-12-28T09:23:17;5.63;;;2.17;;
12703;SDS011;6416;52.182;7.650;2023-12-28T09:25:42;5.43;;;2.13;;
12703;SDS011;6416;52.182;7.650;2023-12-28T09:28:07;6.03;;;2.47;;
12703;SDS011;6416;52.182;7.650;2023-12-28T09:30:33;8.07;;;2.70;;
12703;SDS011;6416;52.182;7.650;2023-12-28T09:32:58;7.70;;;2.23;;
12703;SDS011;6416;52.182;7.650;2023-12-28T09:35:24;6.77;;;2.27;;
12703;SDS011;6416;52.182;7.650;2023-12-28T09:37:49;9.17;;;2.43;;
12703;SDS011;6416;52.182;7.650;2023-12-28T09:40:15;9.80;;;2.63;;
12703;SDS011;6416;52.182;7.650;2023-12-28T09:42:48;10.03;;;3.00;;
12703;SDS011;6416;52.182;7.650;2023-12-28T09:45:21;8.20;;;2.40;;
12703;SDS011;6416;52.182;7.650;2023-12-28T09:47:46;4.40;;;2.03;;
12703;SDS011;6416;52.182;7.650;2023-12-28T09:50:12;7.13;;;2.63;;
12703;SDS011;6416;52.182;7.650;2023-12-28T09:52:39;7.43;;;2.27;;
12703;SDS011;6416;52.182;7.650;2023-12-28T09:55:05;6.73;;;2.70;;
12703;SDS011;6416;52.182;7.650;2023-12-28T09:57:30;5.67;;;2.57;;
12703;SDS011;6416;52.182;7.650;2023-12-28T09:59:56;8.33;;;2.70;;
12703;SDS011;6416;52.182;7.650;2023-12-28T10:02:21;7.10;;;2.23;;
12703;SDS011;6416;52.182;7.650;2023-12-28T10:04:47;6.23;;;2.00;;
12703;SDS011;6416;52.182;7.650;2023-12-28T10:07:13;9.93;;;2.70;;
12703;SDS011;6416;52.182;7.650;2023-12-28T10:09:38;13.80;;;3.07;;
12703;SDS011;6416;52.182;7.650;2023-12-28T10:12:04;9.13;;;3.03;;
12703;SDS011;6416;52.182;7.650;2023-12-28T10:14:31;8.23;;;2.57;;
12703;SDS011;6416;52.182;7.650;2023-12-28T10:16:56;8.97;;;2.70;;
12703;SDS011;6416;52.182;7.650;2023-12-28T10:19:22;19.37;;;8.43;;
12703;SDS011;6416;52.182;7.650;2023-12-28T10:21:47;9.67;;;2.73;;
12703;SDS011;6416;52.182;7.650;2023-12-28T10:24:13;7.10;;;2.30;;
12703;SDS011;6416;52.182;7.650;2023-12-28T10:26:38;4.70;;;1.87;;
12703;SDS011;6416;52.182;7.650;2023-12-28T10:29:04;7.67;;;2.50;;
12703;SDS011;6416;52.182;7.650;2023-12-28T10:31:30;9.37;;;2.83;;
12703;SDS011;6416;52.182;7.650;2023-12-28T10:33:58;10.07;;;2.60;;
12703;SDS011;6416;52.182;7.650;2023-12-28T10:36:24;7.43;;;2.40;;
12703;SDS011;6416;52.182;7.650;2023-12-28T10:38:51;9.73;;;2.67;;
12703;SDS011;6416;52.182;7.650;2023-12-28T10:41:18;6.53;;;2.50;;
12703;SDS011;6416;52.182;7.650;2023-12-28T10:43:57;4.87;;;2.13;;
12703;SDS011;6416;52.182;7.650;2023-12-28T10:46:30;10.43;;;2.80;;
12703;SDS011;6416;52.182;7.650;2023-12-28T10:49:05;5.03;;;1.87;;
12703;SDS011;6416;52.182;7.650;2023-12-28T10:51:34;9.80;;;2.97;;
12703;SDS011;6416;52.182;7.650;2023-12-28T10:54:23;6.90;;;2.40;;
12703;SDS011;6416;52.182;7.650;2023-12-28T10:56:55;6.93;;;2.50;;
12703;SDS011;6416;52.182;7.650;2023-12-28T11:02:09;9.17;;;2.87;;
12703;SDS011;6416;52.182;7.650;2023-12-28T11:04:48;9.20;;;3.00;;
12703;SDS011;6416;52.182;7.650;2023-12-28T11:07:18;8.43;;;2.93;;
12703;SDS011;6416;52.182;7.650;2023-12-28T11:09:44;5.30;;;2.67;;
12703;SDS011;6416;52.182;7.650;2023-12-28T11:12:10;9.37;;;2.90;;
12703;SDS011;6416;52.182;7.650;2023-12-28T11:14:38;7.83;;;2.40;;
12703;SDS011;6416;52.182;7.650;2023-12-28T11:17:05;8.70;;;2.80;;
12703;SDS011;6416;52.182;7.650;2023-12-28T11:19:30;8.20;;;2.27;;
12703;SDS011;6416;52.182;7.650;2023-12-28T11:21:57;9.47;;;2.20;;
12703;SDS011;6416;52.182;7.650;2023-12-28T11:24:23;8.13;;;2.80;;
12703;SDS011;6416;52.182;7.650;2023-12-28T11:26:52;8.67;;;2.47;;
12703;SDS011;6416;52.182;7.650;2023-12-28T11:29:19;9.27;;;2.60;;
12703;SDS011;6416;52.182;7.650;2023-12-28T11:31:45;11.40;;;2.20;;
12703;SDS011;6416;52.182;7.650;2023-12-28T11:34:16;8.93;;;2.40;;
12703;SDS011;6416;52.182;7.650;2023-12-28T11:36:43;11.03;;;3.50;;
12703;SDS011;6416;52.182;7.650;2023-12-28T11:39:13;7.40;;;2.70;;
12703;SDS011;6416;52.182;7.650;2023-12-28T11:42:01;9.53;;;2.90;;
12703;SDS011;6416;52.182;7.650;2023-12-28T11:44:28;9.17;;;3.03;;
12703;SDS011;6416;52.182;7.650;2023-12-28T11:47:10;7.60;;;2.43;;
12703;SDS011;6416;52.182;7.650;2023-12-28T11:49:43;8.37;;;2.73;;
12703;SDS011;6416;52.182;7.650;2023-12-28T11:52:08;5.47;;;2.00;;
12703;SDS011;6416;52.182;7.650;2023-12-28T11:54:35;12.17;;;2.80;;
12703;SDS011;6416;52.182;7.650;2023-12-28T11:57:00;7.27;;;2.37;;
12703;SDS011;6416;52.182;7.650;2023-12-28T11:59:25;5.40;;;2.60;;
12703;SDS011;6416;52.182;7.650;2023-12-28T12:01:54;6.97;;;2.37;;
12703;SDS011;6416;52.182;7.650;2023-12-28T12:04:20;7.50;;;2.70;;
12703;SDS011;6416;52.182;7.650;2023-12-28T12:06:46;8.10;;;2.63;;
12703;SDS011;6416;52.182;7.650;2023-12-28T12:09:12;8.10;;;2.37;;
12703;SDS011;6416;52.182;7.650;2023-12-28T12:11:39;7.37;;;2.57;;
12703;SDS011;6416;52.182;7.650;2023-12-28T12:14:10;7.67;;;2.23;;
12703;SDS011;6416;52.182;7.650;2023-12-28T12:16:37;6.33;;;2.60;;
12703;SDS011;6416;52.182;7.650;2023-12-28T12:19:03;7.30;;;2.10;;
12703;SDS011;6416;52.182;7.650;2023-12-28T12:21:29;5.40;;;2.27;;
12703;SDS011;6416;52.182;7.650;2023-12-28T12:23:55;6.03;;;1.70;;
12703;SDS011;6416;52.182;7.650;2023-12-28T12:26:20;8.67;;;2.63;;
12703;SDS011;6416;52.182;7.650;2023-12-28T12:28:46;7.80;;;2.67;;
12703;SDS011;6416;52.182;7.650;2023-12-28T12:31:11;10.07;;;2.70;;
12703;SDS011;6416;52.182;7.650;2023-12-28T12:33:37;7.97;;;2.63;;
12703;SDS011;6416;52.182;7.650;2023-12-28T12:36:05;7.77;;;2.43;;
12703;SDS011;6416;52.182;7.650;2023-12-28T12:38:31;6.33;;;2.30;;
12703;SDS011;6416;52.182;7.650;2023-12-28T12:40:57;6.83;;;2.13;;
12703;SDS011;6416;52.182;7.650;2023-12-28T12:43:23;8.33;;;2.10;;
12703;SDS011;6416;52.182;7.650;2023-12-28T12:45:49;10.17;;;3.30;;
12703;SDS011;6416;52.182;7.650;2023-12-28T12:48:14;5.77;;;2.07;;
12703;SDS011;6416;52.182;7.650;2023-12-28T12:50:40;10.63;;;3.10;;
12703;SDS011;6416;52.182;7.650;2023-12-28T12:53:06;9.10;;;2.50;;
12703;SDS011;6416;52.182;7.650;2023-12-28T12:55:31;7.80;;;2.53;;
12703;SDS011;6416;52.182;7.650;2023-12-28T12:57:57;6.37;;;2.20;;
12703;SDS011;6416;52.182;7.650;2023-12-28T13:00:23;8.80;;;2.43;;
12703;SDS011;6416;52.182;7.650;2023-12-28T13:02:49;7.73;;;2.67;;
12703;SDS011;6416;52.182;7.650;2023-12-28T13:05:15;5.87;;;2.30;;
12703;SDS011;6416;52.182;7.650;2023-12-28T13:07:41;8.27;;;2.53;;
12703;SDS011;6416;52.182;7.650;2023-12-28T13:10:07;6.70;;;2.10;;
12703;SDS011;6416;52.182;7.650;2023-12-28T13:12:33;6.07;;;2.20;;
12703;SDS011;6416;52.182;7.650;2023-12-28T13:14:58;7.37;;;2.77;;
12703;SDS011;6416;52.182;7.650;2023-12-28T13:17:24;3.60;;;2.03;;
12703;SDS011;6416;52.182;7.650;2023-12-28T13:19:49;7.60;;;2.03;;
12703;SDS011;6416;52.182;7.650;2023-12-28T13:22:15;5.40;;;1.93;;
12703;SDS011;6416;52.182;7.650;2023-12-28T13:24:40;9.77;;;2.97;;
12703;SDS011;6416;52.182;7.650;2023-12-28T13:27:05;6.43;;;2.37;;
12703;SDS011;6416;52.182;7.650;2023-12-28T13:29:31;8.10;;;2.33;;
12703;SDS011;6416;52.182;7.650;2023-12-28T13:31:56;7.87;;;2.53;;
12703;SDS011;6416;52.182;7.650;2023-12-28T13:34:22;4.67;;;2.00;;
12703;SDS011;6416;52.182;7.650;2023-12-28T13:36:47;10.27;;;2.63;;
12703;SDS011;6416;52.182;7.650;2023-12-28T13:39:13;7.50;;;2.57;;
12703;SDS011;6416;52.182;7.650;2023-12-28T13:41:38;11.27;;;2.93;;
12703;SDS011;6416;52.182;7.650;2023-12-28T13:44:04;9.63;;;2.23;;
12703;SDS011;6416;52.182;7.650;2023-12-28T13:46:30;11.43;;;2.87;;
12703;SDS011;6416;52.182;7.650;2023-12-28T13:48:56;7.97;;;2.73;;
12703;SDS011;6416;52.182;7.650;2023-12-28T13:51:21;8.97;;;2.03;;
12703;SDS011;6416;52.182;7.650;2023-12-28T13:53:47;7.93;;;2.87;;
12703;SDS011;6416;52.182;7.650;2023-12-28T13:56:12;10.03;;;2.53;;
12703;SDS011;6416;52.182;7.650;2023-12-28T13:58:38;6.90;;;2.30;;
12703;SDS011;6416;52.182;7.650;2023-12-28T14:01:03;6.33;;;2.27;;
12703;SDS011;6416;52.182;7.650;2023-12-28T14:03:28;5.77;;;2.10;;
12703;SDS011;6416;52.182;7.650;2023-12-28T14:05:54;8.50;;;2.57;;
12703;SDS011;6416;52.182;7.650;2023-12-28T14:08:19;6.57;;;2.40;;
12703;SDS011;6416;52.182;7.650;2023-12-28T14:10:45;9.10;;;2.30;;
12703;SDS011;6416;52.182;7.650;2023-12-28T14:13:10;7.07;;;2.07;;
12703;SDS011;6416;52.182;7.650;2023-12-28T14:15:36;7.73;;;2.53;;
12703;SDS011;6416;52.182;7.650;2023-12-28T14:18:01;7.23;;;2.87;;
12703;SDS011;6416;52.182;7.650;2023-12-28T14:20:27;7.27;;;2.50;;
12703;SDS011;6416;52.182;7.650;2023-12-28T14:22:52;8.50;;;2.87;;
12703;SDS011;6416;52.182;7.650;2023-12-28T14:25:18;8.20;;;2.43;;
12703;SDS011;6416;52.182;7.650;2023-12-28T14:27:44;6.10;;;2.47;;
12703;SDS011;6416;52.182;7.650;2023-12-28T14:30:10;9.50;;;2.40;;
12703;SDS011;6416;52.182;7.650;2023-12-28T14:32:36;7.87;;;2.50;;
12703;SDS011;6416;52.182;7.650;2023-12-28T14:35:01;8.90;;;2.40;;
12703;SDS011;6416;52.182;7.650;2023-12-28T14:37:27;7.37;;;2.43;;
12703;SDS011;6416;52.182;7.650;2023-12-28T14:39:53;7.63;;;2.70;;
12703;SDS011;6416;52.182;7.650;2023-12-28T14:42:18;8.30;;;2.50;;
12703;SDS011;6416;52.182;7.650;2023-12-28T14:44:44;6.90;;;2.20;;
12703;SDS011;6416;52.182;7.650;2023-12-28T14:47:09;9.27;;;2.60;;
12703;SDS011;6416;52.182;7.650;2023-12-28T14:49:35;8.13;;;2.37;;
12703;SDS011;6416;52.182;7.650;2023-12-28T14:52:00;4.93;;;1.90;;
12703;SDS011;6416;52.182;7.650;2023-12-28T14:54:25;6.60;;;2.20;;
12703;SDS011;6416;52.182;7.650;2023-12-28T14:56:51;8.67;;;2.30;;